createdAt,value
2022-11-05T00:01:43.581Z,5.07
2022-11-05T00:08:06.877Z,5.10
2022-11-05T00:14:33.342Z,5.13
2022-11-05T00:20:38.136Z,4.82
2022-11-05T00:26:41.462Z,4.88
2022-11-05T00:32:44.995Z,4.82
2022-11-05T00:38:49.715Z,4.80
2022-11-05T00:45:02.319Z,4.70
2022-11-05T00:51:06.007Z,4.82
2022-11-05T00:57:11.021Z,4.53
2022-11-05T01:03:15.807Z,4.30
2022-11-05T01:09:19.364Z,3.95
2022-11-05T01:15:24.186Z,3.90
2022-11-05T01:21:27.555Z,2.90
2022-11-05T01:27:30.923Z,3.92
2022-11-05T01:33:35.681Z,3.65
2022-11-05T01:39:39.127Z,4.10
2022-11-05T01:45:43.067Z,3.53
2022-11-05T01:51:48.381Z,3.95
2022-11-05T01:57:52.454Z,3.80
2022-11-05T02:03:57.274Z,3.47
2022-11-05T02:10:03.870Z,3.90
2022-11-05T02:16:12.096Z,3.83
2022-11-05T02:22:36.375Z,3.35
2022-11-05T02:28:49.542Z,3.22
2022-11-05T02:34:58.999Z,3.35
2022-11-05T02:41:06.602Z,3.15
2022-11-05T02:47:18.140Z,3.33
2022-11-05T02:53:26.787Z,3.40
2022-11-05T02:59:30.195Z,3.15
2022-11-05T03:05:41.372Z,3.08
2022-11-05T03:11:52.007Z,2.90
2022-11-05T03:18:03.089Z,3.08
2022-11-05T03:24:09.722Z,3.55
2022-11-05T03:30:15.779Z,3.58
2022-11-05T03:36:23.277Z,3.45
2022-11-05T03:42:28.219Z,3.50
2022-11-05T03:48:34.635Z,3.47
2022-11-05T03:54:38.680Z,2.80
2022-11-05T04:00:42.164Z,3.28
2022-11-05T04:07:04.593Z,3.75
2022-11-05T04:13:26.539Z,3.85
2022-11-05T04:19:43.774Z,3.78
2022-11-05T04:25:48.606Z,4.03
2022-11-05T04:31:52.225Z,4.47
2022-11-05T04:37:55.930Z,3.95
2022-11-05T04:44:00.634Z,4.32
2022-11-05T04:50:04.130Z,4.78
2022-11-05T04:56:11.299Z,5.10
2022-11-05T05:02:16.128Z,5.68
2022-11-05T05:08:19.658Z,5.30
2022-11-05T05:14:22.992Z,5.10
2022-11-05T05:20:45.857Z,5.47
2022-11-05T05:26:50.366Z,5.60
2022-11-05T05:32:53.744Z,4.85
2022-11-05T05:38:58.832Z,5.65
2022-11-05T05:45:02.184Z,5.22
2022-11-05T05:51:06.384Z,5.40
2022-11-05T05:57:11.097Z,5.25
2022-11-05T06:03:14.845Z,5.47
2022-11-05T06:09:18.588Z,5.40
2022-11-05T06:15:23.793Z,5.78
2022-11-05T06:21:27.112Z,6.38
2022-11-05T06:27:30.768Z,5.97
2022-11-05T06:33:35.478Z,5.55
2022-11-05T06:39:39.338Z,5.75
2022-11-05T06:45:42.751Z,6.47
2022-11-05T06:51:47.472Z,6.72
2022-11-05T06:57:51.262Z,6.00
2022-11-05T07:03:54.613Z,5.78
2022-11-05T07:09:59.342Z,5.22
2022-11-05T07:16:02.730Z,5.28
2022-11-05T07:22:06.139Z,5.30
2022-11-05T07:28:11.082Z,5.53
2022-11-05T07:34:14.473Z,5.40
2022-11-05T07:40:19.270Z,5.40
2022-11-05T07:46:23.998Z,5.38
2022-11-05T07:52:28.081Z,6.00
2022-11-05T07:58:31.466Z,6.20
2022-11-05T08:04:36.202Z,5.03
2022-11-05T08:10:41.218Z,5.45
2022-11-05T08:16:44.884Z,6.05
2022-11-05T08:22:49.649Z,5.30
2022-11-05T08:28:52.981Z,4.70
2022-11-05T08:34:56.355Z,4.93
2022-11-05T08:41:01.173Z,4.82
2022-11-05T08:47:04.544Z,5.65
2022-11-05T08:53:08.163Z,5.95
2022-11-05T08:59:13.300Z,5.30
2022-11-05T09:05:16.709Z,5.60
2022-11-05T09:11:20.064Z,6.53
2022-11-05T09:17:24.874Z,7.22
2022-11-05T09:23:28.217Z,6.72
2022-11-05T09:29:31.690Z,8.02
2022-11-05T09:35:36.712Z,6.38
2022-11-05T09:41:41.149Z,5.30
2022-11-05T09:47:45.935Z,5.97
2022-11-05T09:53:51.494Z,6.25
2022-11-05T09:59:56.290Z,5.55
2022-11-05T10:06:02.089Z,3.75
2022-11-05T10:12:09.543Z,4.95
2022-11-05T10:18:16.557Z,5.45
2022-11-05T10:24:20.809Z,5.63
2022-11-05T10:30:25.909Z,4.97
2022-11-05T10:36:32.007Z,5.63
2022-11-05T10:42:49.091Z,5.07
2022-11-05T10:49:01.396Z,5.32
2022-11-05T10:55:07.118Z,4.80
2022-11-05T11:01:12.606Z,4.40
2022-11-05T11:07:21.722Z,5.03
2022-11-05T11:13:26.531Z,4.15
2022-11-05T11:19:31.596Z,4.25
2022-11-05T11:25:39.981Z,5.07
2022-11-05T11:31:43.823Z,4.32
2022-11-05T11:37:48.051Z,5.20
2022-11-05T11:43:55.631Z,5.30
2022-11-05T11:49:59.770Z,5.65
2022-11-05T11:56:08.323Z,5.00
2022-11-05T12:02:30.362Z,5.07
2022-11-05T12:08:44.336Z,5.13
2022-11-05T12:14:52.485Z,5.15
2022-11-05T12:21:07.662Z,5.40
2022-11-05T12:27:19.085Z,5.75
2022-11-05T12:33:25.724Z,5.00
2022-11-05T12:39:59.316Z,4.63
2022-11-05T12:46:07.217Z,4.55
2022-11-05T12:52:20.319Z,5.53
2022-11-05T12:58:25.977Z,4.97
2022-11-05T13:04:34.659Z,4.47
2022-11-05T13:10:41.516Z,4.10
2022-11-05T13:16:46.594Z,3.78
2022-11-05T13:22:54.805Z,3.65
2022-11-05T13:29:01.275Z,3.55
2022-11-05T13:35:06.103Z,5.00
2022-11-05T13:41:19.722Z,4.00
2022-11-05T13:47:38.193Z,4.20
2022-11-05T13:54:01.051Z,4.13
2022-11-05T14:00:08.394Z,3.83
2022-11-05T14:06:12.089Z,4.47
2022-11-05T14:12:24.891Z,4.20
2022-11-05T14:18:40.218Z,3.30
2022-11-05T14:24:45.791Z,3.78
2022-11-05T14:30:49.330Z,6.03
2022-11-05T14:37:22.815Z,5.75
2022-11-05T14:43:28.696Z,4.90
2022-11-05T14:49:33.473Z,3.95
2022-11-05T14:55:38.898Z,2.97
2022-11-05T15:01:58.990Z,4.30
2022-11-05T15:08:22.444Z,4.35
2022-11-05T15:14:30.606Z,4.85
2022-11-05T15:20:40.264Z,3.42
2022-11-05T15:26:48.346Z,3.25
2022-11-05T15:32:54.213Z,2.95
2022-11-05T15:39:27.492Z,2.00
2022-11-05T15:45:22.672Z,2.78
2022-11-05T15:51:27.788Z,2.78
2022-11-05T15:57:31.568Z,3.08
2022-11-05T16:03:36.793Z,2.50
2022-11-05T16:09:43.680Z,2.05
2022-11-05T16:15:54.578Z,2.40
2022-11-05T16:21:58.571Z,2.30
2022-11-05T16:28:03.876Z,4.30
2022-11-05T16:34:07.516Z,3.45
2022-11-05T16:40:14.419Z,2.90
2022-11-05T16:46:19.148Z,3.45
2022-11-05T16:52:22.507Z,3.80
2022-11-05T16:58:27.670Z,3.72
2022-11-05T17:04:32.505Z,3.40
2022-11-05T17:10:36.260Z,3.20
2022-11-05T17:16:40.250Z,4.65
2022-11-05T17:22:45.064Z,3.83
2022-11-05T17:28:48.668Z,3.40
2022-11-05T17:34:54.020Z,3.60
2022-11-05T17:40:58.782Z,3.78
2022-11-05T17:47:02.274Z,3.63
2022-11-05T17:53:05.641Z,3.70
2022-11-05T17:59:10.422Z,3.90
2022-11-05T18:05:14.442Z,4.35
2022-11-05T18:11:18.087Z,3.97
2022-11-05T18:17:23.081Z,3.90
2022-11-05T18:23:26.564Z,3.75
2022-11-05T18:29:29.977Z,3.67
2022-11-05T18:35:34.776Z,3.70
2022-11-05T18:41:38.259Z,4.10
2022-11-05T18:47:41.805Z,3.33
2022-11-05T18:53:46.968Z,3.13
2022-11-05T18:59:50.478Z,3.67
2022-11-05T19:05:53.919Z,3.10
2022-11-05T19:11:59.424Z,1.77
2022-11-05T19:18:02.840Z,3.15
2022-11-05T19:24:07.578Z,3.15
2022-11-05T19:30:12.730Z,4.22
2022-11-05T19:36:16.633Z,2.85
2022-11-05T19:42:19.990Z,3.88
2022-11-05T19:48:25.374Z,2.50
2022-11-05T19:54:28.843Z,3.08
2022-11-05T20:00:32.246Z,2.42
2022-11-05T20:06:40.414Z,3.20
2022-11-05T20:12:43.869Z,2.95
2022-11-05T20:18:47.336Z,3.80
2022-11-05T20:24:52.215Z,3.58
2022-11-05T20:30:57.337Z,3.88
2022-11-05T20:37:01.013Z,2.90
2022-11-05T20:43:05.786Z,3.05
2022-11-05T20:49:09.232Z,2.90
2022-11-05T20:55:12.769Z,2.72
2022-11-05T21:01:18.221Z,3.45
2022-11-05T21:07:21.880Z,2.97
2022-11-05T21:13:25.601Z,3.40
2022-11-05T21:19:32.238Z,2.47
2022-11-05T21:25:35.704Z,2.78
2022-11-05T21:31:39.143Z,2.95
2022-11-05T21:37:44.239Z,2.97
2022-11-05T21:43:47.629Z,3.47
2022-11-05T21:49:51.134Z,3.45
2022-11-05T21:56:14.005Z,3.25
2022-11-05T22:02:18.312Z,5.03
2022-11-05T22:08:21.700Z,3.13
2022-11-05T22:14:26.721Z,2.85
2022-11-05T22:20:30.088Z,2.80
2022-11-05T22:26:33.699Z,3.08
2022-11-05T22:32:39.063Z,2.90
2022-11-05T22:38:42.685Z,3.03
2022-11-05T22:44:46.039Z,2.83
2022-11-05T22:50:50.777Z,2.95
2022-11-05T22:56:54.236Z,2.92
2022-11-05T23:02:57.720Z,3.38
2022-11-05T23:09:20.379Z,3.47
2022-11-05T23:15:41.822Z,3.78
2022-11-05T23:22:02.906Z,3.40
2022-11-05T23:28:09.930Z,3.40
2022-11-05T23:34:13.572Z,3.28
2022-11-05T23:40:17.865Z,2.97
2022-11-05T23:46:40.060Z,2.88
2022-11-05T23:52:43.375Z,2.88
2022-11-05T23:58:46.873Z,3.28
